Arrantzale — EBVT — position and weather

sailwx.info

Track history (hours):
 
Tides and Currents Weather Stations Pressure Air Temp Water Temp Dewpoint Dewpoint Depression Visibility Wind Speed Wind Dir Waves Ship Positions

Arrantzale

Last reported at 2015-Jul-01 10:27 UTC. Time now 2015-Jul-01 11:59 UTC.
Position N 43°25' W 001°53'.

Length 32 m.

Type: Fishing. MMSI: 224065290.

Date/timePositionNaut miles runAvg speedWind from/ knotsBaromVisibWave heightAir tempDewpointWater temp
2015-Jul-01 10:27N 43°25' W 001°53'4 4.8
2015-Jul-01 09:34N 43°23' W 001°48'0 0.1
2015-Jul-01 08:33N 43°23' W 001°47'  
2015-Jun-28 07:33N 43°23' W 001°47'0 0.0
2015-Jun-26 10:04N 43°23' W 001°47'0 0.2
2015-Jun-26 09:33N 43°23' W 001°47'0 0.0
2015-Jun-26 08:33N 43°23' W 001°47'0 0.0
2015-Jun-26 07:33N 43°23' W 001°47'0 0.0
2015-Jun-26 06:33N 43°23' W 001°47'0 0.0
2015-Jun-26 05:33N 43°23' W 001°47'0 0.0
2015-Jun-25 10:06N 43°23' W 001°47'0 0.0
2015-Jun-25 07:31N 43°23' W 001°47'0 0.0
2015-Jun-25 06:33N 43°23' W 001°47'2 1.9
2015-Jun-25 05:33N 43°24' W 001°50'33 3.3
2015-Jun-24 19:33N 43°31' W 002°34'5 5.2
2015-Jun-24 18:31N 43°31' W 002°42'1 0.5
2015-Jun-24 17:31N 43°31' W 002°41'1 0.5
2015-Jun-24 16:32N 43°32' W 002°40'1 0.5
2015-Jun-24 15:32N 43°32' W 002°40'48 1.1
2015-Jun-22 18:33N 43°41' W 003°45'3 2.8
2015-Jun-22 17:34N 43°40' W 003°41'3 1.5
2015-Jun-22 15:32N 43°40' W 003°45'42 3.7
2015-Jun-22 04:03N 43°33' W 002°48'13 8.9
2015-Jun-22 02:33N 43°31' W 002°29'21 8.8
2015-Jun-22 00:10N 43°27' W 002°01'6 8.9
2015-Jun-21 23:32N 43°26' W 001°53'5 5.4
2015-Jun-21 22:33N 43°23' W 001°47'0 0.1
2015-Jun-21 21:33N 43°23' W 001°48'  
Track history (hours):
 
Tides and Currents Weather Stations Pressure Air Temp Water Temp Dewpoint Dewpoint Depression Visibility Wind Speed Wind Dir Waves Ship Positions

Arrantzale

Last reported at 2015-Jul-01 10:27 UTC. Time now 2015-Jul-01 11:59 UTC.
Position N 43°25' W 001°53'.

Length 32 m.

Type: Fishing. MMSI: 224065290.

Date/timePositionNaut miles runAvg speedWind from/ knotsBaromVisibWave heightAir tempDewpointWater temp
2015-Jul-01 10:27N 43°25' W 001°53'4 4.8
2015-Jul-01 09:34N 43°23' W 001°48'0 0.1
2015-Jul-01 08:33N 43°23' W 001°47'  
2015-Jun-28 07:33N 43°23' W 001°47'0 0.0
2015-Jun-26 10:04N 43°23' W 001°47'0 0.2
2015-Jun-26 09:33N 43°23' W 001°47'0 0.0
2015-Jun-26 08:33N 43°23' W 001°47'0 0.0
2015-Jun-26 07:33N 43°23' W 001°47'0 0.0
2015-Jun-26 06:33N 43°23' W 001°47'0 0.0
2015-Jun-26 05:33N 43°23' W 001°47'0 0.0
2015-Jun-25 10:06N 43°23' W 001°47'0 0.0
2015-Jun-25 07:31N 43°23' W 001°47'0 0.0
2015-Jun-25 06:33N 43°23' W 001°47'2 1.9
2015-Jun-25 05:33N 43°24' W 001°50'33 3.3
2015-Jun-24 19:33N 43°31' W 002°34'5 5.2
2015-Jun-24 18:31N 43°31' W 002°42'1 0.5
2015-Jun-24 17:31N 43°31' W 002°41'1 0.5
2015-Jun-24 16:32N 43°32' W 002°40'1 0.5
2015-Jun-24 15:32N 43°32' W 002°40'48 1.1
2015-Jun-22 18:33N 43°41' W 003°45'3 2.8
2015-Jun-22 17:34N 43°40' W 003°41'3 1.5
2015-Jun-22 15:32N 43°40' W 003°45'42 3.7
2015-Jun-22 04:03N 43°33' W 002°48'13 8.9
2015-Jun-22 02:33N 43°31' W 002°29'21 8.8
2015-Jun-22 00:10N 43°27' W 002°01'6 8.9
2015-Jun-21 23:32N 43°26' W 001°53'5 5.4
2015-Jun-21 22:33N 43°23' W 001°47'0 0.1
2015-Jun-21 21:33N 43°23' W 001°48'  

Dump ship's entire track history